Time;durP1;ratioP1;P1;durP2;ratioP2;P2;SDS_P1;SDS_P2;PMS_P1;PMS_P2;Temp;Humidity;BMP_temperature;BMP_pressure;BME280_temperature;BME280_humidity;BME280_pressure;Samples;Min_cycle;Max_cycle;Signal;HPM_P1;HPM_P2
2023/08/05 00:04:54;;;;;;;3.53;3.22;;;;;;;;;;10294642;28;20083;-62
2023/08/05 00:09:53;;;;;;;3.55;3.25;;;;;;;;;;10289810;28;20068;-61
2023/08/05 00:14:51;;;;;;;3.00;2.60;;;;;;;;;;10292665;28;20085;-62
2023/08/05 00:19:50;;;;;;;3.67;3.38;;;;;;;;;;10293354;28;20080;-63
2023/08/05 00:24:50;;;;;;;4.95;3.42;;;;;;;;;;10287138;28;20072;-62
2023/08/05 00:29:48;;;;;;;4.85;3.35;;;;;;;;;;10289432;28;20076;-62
2023/08/05 00:34:46;;;;;;;4.57;3.00;;;;;;;;;;10290656;28;20072;-62
2023/08/05 00:39:44;;;;;;;5.60;3.00;;;;;;;;;;10295044;28;20498;-62
2023/08/05 00:44:44;;;;;;;2.28;2.03;;;;;;;;;;10293304;28;20079;-61
2023/08/05 00:49:42;;;;;;;3.53;2.55;;;;;;;;;;10290358;28;20064;-61
2023/08/05 00:54:40;;;;;;;6.50;2.70;;;;;;;;;;10294374;28;20067;-61
2023/08/05 00:59:40;;;;;;;2.63;2.42;;;;;;;;;;10294131;28;20076;-62
2023/08/05 01:04:40;;;;;;;4.35;2.83;;;;;;;;;;10292262;28;20072;-62
2023/08/05 01:09:38;;;;;;;2.95;2.75;;;;;;;;;;10290170;28;20529;-62
2023/08/05 01:14:36;;;;;;;2.70;2.50;;;;;;;;;;10299069;28;20092;-62
2023/08/05 01:19:35;;;;;;;3.05;2.80;;;;;;;;;;10301334;28;20076;-60
2023/08/05 01:24:38;;;;;;;2.53;2.33;;;;;;;;;;10292195;28;20072;-62
2023/08/05 01:29:37;;;;;;;2.87;2.67;;;;;;;;;;10290358;28;20096;-62
2023/08/05 01:34:37;;;;;;;5.90;2.70;;;;;;;;;;10293463;28;20072;-61
2023/08/05 01:39:36;;;;;;;3.92;2.85;;;;;;;;;;10287043;28;21534;-61
2023/08/05 01:44:34;;;;;;;3.20;2.90;;;;;;;;;;10293985;28;20079;-61
2023/08/05 01:49:34;;;;;;;3.92;2.92;;;;;;;;;;10291384;28;20072;-60
2023/08/05 01:54:32;;;;;;;3.75;3.40;;;;;;;;;;10291923;28;20103;-61
2023/08/05 01:59:31;;;;;;;5.03;3.60;;;;;;;;;;10290680;28;20509;-62
2023/08/05 02:04:29;;;;;;;4.13;3.72;;;;;;;;;;10293383;28;20083;-62
2023/08/05 02:09:29;;;;;;;4.60;3.88;;;;;;;;;;10291124;28;20072;-61
2023/08/05 02:14:27;;;;;;;3.85;3.42;;;;;;;;;;10288632;28;20087;-61
2023/08/05 02:19:25;;;;;;;4.88;4.10;;;;;;;;;;10287432;28;20064;-62
2023/08/05 02:24:24;;;;;;;3.42;3.13;;;;;;;;;;10286023;28;20080;-61
2023/08/05 02:29:23;;;;;;;4.78;4.38;;;;;;;;;;10290306;28;20095;-61
2023/08/05 02:34:22;;;;;;;5.82;4.22;;;;;;;;;;10288879;28;20077;-61
2023/08/05 02:39:21;;;;;;;3.78;3.47;;;;;;;;;;10288760;28;20080;-61
2023/08/05 02:44:19;;;;;;;5.15;4.63;;;;;;;;;;10289764;28;20068;-62
2023/08/05 02:49:19;;;;;;;8.15;5.00;;;;;;;;;;10279556;28;20636;-61
2023/08/05 02:54:18;;;;;;;6.85;4.40;;;;;;;;;;10297897;28;20484;-62
2023/08/05 02:59:16;;;;;;;5.85;4.45;;;;;;;;;;10288028;28;20072;-61
2023/08/05 03:04:14;;;;;;;5.00;4.50;;;;;;;;;;10295633;28;20449;-62
2023/08/05 03:09:14;;;;;;;5.95;4.45;;;;;;;;;;10291875;28;20072;-62
2023/08/05 03:14:12;;;;;;;6.60;5.20;;;;;;;;;;10290864;28;20073;-61
2023/08/05 03:19:12;;;;;;;9.45;5.25;;;;;;;;;;10291163;28;20083;-61
2023/08/05 03:24:11;;;;;;;6.75;6.05;;;;;;;;;;10301004;28;20072;-62
2023/08/05 03:29:14;;;;;;;5.70;5.07;;;;;;;;;;10286963;28;20049;-62
2023/08/05 03:34:13;;;;;;;8.73;6.55;;;;;;;;;;10290180;28;20088;-62
2023/08/05 03:39:11;;;;;;;7.75;7.05;;;;;;;;;;10299534;28;20501;-61
2023/08/05 03:44:09;;;;;;;7.65;6.10;;;;;;;;;;10298393;28;20071;-61
2023/08/05 03:49:09;;;;;;;6.75;6.13;;;;;;;;;;10295588;28;20068;-61
2023/08/05 03:54:08;;;;;;;7.85;6.72;;;;;;;;;;10276362;28;20076;-61
2023/08/05 03:59:07;;;;;;;8.75;7.45;;;;;;;;;;10295552;28;20098;-60
2023/08/05 04:04:05;;;;;;;9.10;7.72;;;;;;;;;;10298210;28;20068;-61
2023/08/05 04:09:06;;;;;;;10.13;7.45;;;;;;;;;;10297763;28;20083;-62
2023/08/05 04:14:04;;;;;;;8.95;7.20;;;;;;;;;;10298714;28;20083;-62
2023/08/05 04:19:03;;;;;;;8.30;7.55;;;;;;;;;;10291147;28;20069;-60
2023/08/05 04:24:01;;;;;;;8.23;6.72;;;;;;;;;;10293383;28;20528;-61
2023/08/05 04:29:02;;;;;;;10.13;7.60;;;;;;;;;;10297269;28;20067;-61
2023/08/05 04:34:01;;;;;;;12.02;7.60;;;;;;;;;;10297819;28;20488;-62
2023/08/05 04:39:02;;;;;;;10.85;7.82;;;;;;;;;;10294684;28;20524;-62
2023/08/05 04:44:02;;;;;;;8.55;7.80;;;;;;;;;;10295159;28;20072;-62
2023/08/05 04:49:00;;;;;;;9.25;8.05;;;;;;;;;;10292649;28;20075;-63
2023/08/05 04:53:58;;;;;;;8.52;7.68;;;;;;;;;;10293678;28;20087;-63
2023/08/05 04:58:57;;;;;;;7.93;7.22;;;;;;;;;;10296538;28;20072;-62
2023/08/05 05:03:56;;;;;;;8.05;7.35;;;;;;;;;;10295819;28;20072;-62
2023/08/05 05:08:54;;;;;;;11.77;7.63;;;;;;;;;;10296053;28;20052;-62
2023/08/05 05:13:53;;;;;;;8.35;7.55;;;;;;;;;;10294031;28;20088;-62
2023/08/05 05:18:51;;;;;;;7.65;6.88;;;;;;;;;;10295449;28;20071;-63
2023/08/05 05:23:50;;;;;;;7.75;7.07;;;;;;;;;;10294706;28;20079;-61
2023/08/05 05:28:49;;;;;;;7.97;7.20;;;;;;;;;;10294169;28;20071;-62
2023/08/05 05:33:47;;;;;;;8.48;7.28;;;;;;;;;;10293726;28;20075;-61
2023/08/05 05:38:46;;;;;;;7.57;6.93;;;;;;;;;;10292196;28;20071;-61
2023/08/05 05:43:45;;;;;;;8.10;6.22;;;;;;;;;;10290046;28;20450;-62
2023/08/05 05:48:44;;;;;;;8.25;5.65;;;;;;;;;;10295572;28;20064;-61
2023/08/05 05:53:43;;;;;;;7.00;4.78;;;;;;;;;;10290361;28;20091;-61
2023/08/05 05:58:41;;;;;;;7.47;4.88;;;;;;;;;;10290642;28;20072;-62
2023/08/05 06:03:42;;;;;;;5.80;5.07;;;;;;;;;;10290785;28;20076;-60
2023/08/05 06:08:41;;;;;;;5.95;5.07;;;;;;;;;;10290840;28;20073;-60
2023/08/05 06:13:40;;;;;;;5.10;4.40;;;;;;;;;;10281931;28;20072;-62
2023/08/05 06:18:38;;;;;;;6.22;4.43;;;;;;;;;;10279694;28;20071;-61
2023/08/05 06:23:37;;;;;;;7.85;4.10;;;;;;;;;;10286363;28;20088;-61
2023/08/05 06:28:35;;;;;;;7.53;4.18;;;;;;;;;;10288208;28;20100;-61
2023/08/05 06:33:34;;;;;;;10.00;6.05;;;;;;;;;;10286356;28;20102;-63
2023/08/05 06:38:32;;;;;;;3.20;3.00;;;;;;;;;;10288832;28;20080;-61
2023/08/05 06:43:33;;;;;;;5.47;3.47;;;;;;;;;;10289451;28;20076;-62
2023/08/05 06:48:31;;;;;;;6.57;3.78;;;;;;;;;;10283102;28;20080;-63
2023/08/05 06:53:29;;;;;;;9.40;3.72;;;;;;;;;;10282402;28;20064;-63
2023/08/05 06:58:27;;;;;;;5.15;2.97;;;;;;;;;;10285743;28;20497;-63
2023/08/05 07:03:27;;;;;;;5.28;2.72;;;;;;;;;;10283068;28;20065;-62
2023/08/05 07:08:25;;;;;;;6.35;2.90;;;;;;;;;;10279250;28;20072;-62
2023/08/05 07:13:24;;;;;;;23.50;21.13;;;;;;;;;;10288993;28;20083;-61
2023/08/05 07:18:23;;;;;;;6.00;5.43;;;;;;;;;;10286306;28;20133;-62
2023/08/05 07:23:22;;;;;;;6.45;5.18;;;;;;;;;;10287177;28;20524;-62
2023/08/05 07:28:21;;;;;;;5.68;3.40;;;;;;;;;;10288573;28;20106;-62
2023/08/05 07:33:19;;;;;;;3.47;2.90;;;;;;;;;;10288820;28;20104;-62
2023/08/05 07:38:20;;;;;;;5.50;3.20;;;;;;;;;;10289836;28;20068;-62
2023/08/05 07:43:22;;;;;;;3.65;2.50;;;;;;;;;;10290685;28;20091;-61
2023/08/05 07:48:20;;;;;;;3.53;2.55;;;;;;;;;;10276743;28;20111;-62
2023/08/05 07:53:20;;;;;;;4.43;2.88;;;;;;;;;;10287052;28;20072;-62
2023/08/05 07:58:20;;;;;;;6.28;2.75;;;;;;;;;;10276022;28;20477;-62
2023/08/05 08:03:19;;;;;;;5.15;2.80;;;;;;;;;;10283691;28;20076;-62
2023/08/05 08:08:17;;;;;;;4.32;2.67;;;;;;;;;;10287599;28;20056;-62
2023/08/05 08:13:15;;;;;;;4.93;2.80;;;;;;;;;;10287835;28;20075;-62
2023/08/05 08:18:15;;;;;;;2.92;2.15;;;;;;;;;;10284389;28;20080;-63
2023/08/05 08:23:13;;;;;;;3.03;2.10;;;;;;;;;;10294600;28;20091;-62
2023/08/05 08:28:11;;;;;;;3.97;2.33;;;;;;;;;;10296077;28;20133;-62
2023/08/05 08:33:09;;;;;;;4.32;2.22;;;;;;;;;;10295873;28;20069;-62
2023/08/05 08:38:09;;;;;;;3.88;2.58;;;;;;;;;;10296486;28;20080;-62
2023/08/05 08:43:07;;;;;;;5.82;2.33;;;;;;;;;;10293561;28;20073;-62
2023/08/05 08:48:09;;;;;;;5.88;2.30;;;;;;;;;;10293229;28;20076;-62
2023/08/05 08:53:09;;;;;;;3.47;2.22;;;;;;;;;;10293177;28;20083;-62
2023/08/05 08:58:07;;;;;;;3.25;2.00;;;;;;;;;;10297071;28;20537;-62
2023/08/05 09:03:06;;;;;;;4.80;3.33;;;;;;;;;;10294838;28;20064;-62
2023/08/05 09:08:05;;;;;;;5.60;2.40;;;;;;;;;;10294224;28;20154;-62
2023/08/05 09:13:05;;;;;;;12.15;2.67;;;;;;;;;;10292427;28;20094;-63
2023/08/05 09:18:05;;;;;;;3.13;2.35;;;;;;;;;;10295026;28;20470;-62
2023/08/05 09:23:05;;;;;;;3.47;2.90;;;;;;;;;;10291450;28;20068;-62
2023/08/05 09:28:06;;;;;;;5.65;2.97;;;;;;;;;;10293083;28;20897;-61
2023/08/05 09:33:04;;;;;;;5.57;3.47;;;;;;;;;;10294439;28;20487;-61
2023/08/05 09:38:03;;;;;;;7.55;2.70;;;;;;;;;;10293607;28;20083;-61
2023/08/05 09:43:03;;;;;;;3.83;2.58;;;;;;;;;;10291910;28;20072;-61
2023/08/05 09:48:06;;;;;;;6.57;3.22;;;;;;;;;;10291762;28;20076;-61
2023/08/05 09:53:06;;;;;;;4.82;2.40;;;;;;;;;;10291887;28;20330;-62
2023/08/05 09:58:07;;;;;;;4.88;2.63;;;;;;;;;;10290169;28;20072;-62
2023/08/05 10:03:13;;;;;;;4.40;2.40;;;;;;;;;;10291930;28;20072;-62
2023/08/05 10:08:12;;;;;;;2.25;2.10;;;;;;;;;;10292953;28;20076;-62
2023/08/05 10:13:14;;;;;;;5.80;2.50;;;;;;;;;;10291627;28;20079;-62
2023/08/05 10:18:15;;;;;;;5.95;2.42;;;;;;;;;;10291894;28;20068;-63
2023/08/05 10:23:14;;;;;;;2.42;1.65;;;;;;;;;;10291261;28;20201;-63
2023/08/05 10:28:39;;;;;;;7.85;2.17;;;;;;;;;;10290442;28;20483;-63
2023/08/05 10:33:52;;;;;;;9.25;2.30;;;;;;;;;;10290823;28;20081;-62
2023/08/05 10:38:52;;;;;;;4.18;2.53;;;;;;;;;;10290879;28;20144;-62
2023/08/05 10:43:51;;;;;;;5.05;2.00;;;;;;;;;;10288685;28;20071;-62
2023/08/05 10:48:49;;;;;;;3.40;2.17;;;;;;;;;;10290405;28;20076;-62
2023/08/05 10:54:00;;;;;;;7.50;1.90;;;;;;;;;;10278540;28;20068;-60
2023/08/05 10:59:01;;;;;;;2.65;1.90;;;;;;;;;;10281868;28;20072;-62
2023/08/05 11:03:59;;;;;;;5.63;2.00;;;;;;;;;;10288357;28;20068;-62
2023/08/05 11:09:00;;;;;;;9.02;2.05;;;;;;;;;;10276114;28;20069;-62
2023/08/05 11:14:00;;;;;;;3.78;1.70;;;;;;;;;;10280601;28;20080;-62
2023/08/05 11:18:59;;;;;;;4.53;1.92;;;;;;;;;;10286949;28;20076;-63
2023/08/05 11:23:57;;;;;;;6.18;2.58;;;;;;;;;;10286489;28;20083;-62
2023/08/05 11:29:00;;;;;;;4.55;2.28;;;;;;;;;;10278047;28;20071;-63
2023/08/05 11:33:59;;;;;;;7.85;2.67;;;;;;;;;;10286263;28;20076;-63
2023/08/05 11:38:59;;;;;;;5.72;2.05;;;;;;;;;;10283992;28;20636;-62
2023/08/05 11:44:00;;;;;;;6.55;2.00;;;;;;;;;;10286854;28;20448;-62
2023/08/05 11:49:08;;;;;;;4.43;1.88;;;;;;;;;;10283143;28;20079;-62
2023/08/05 11:54:06;;;;;;;4.38;1.80;;;;;;;;;;10283872;28;20111;-62
2023/08/05 11:59:06;;;;;;;4.05;1.70;;;;;;;;;;10292581;28;20504;-61
2023/08/05 12:04:07;;;;;;;2.30;1.80;;;;;;;;;;10289432;28;20069;-62
2023/08/05 12:09:05;;;;;;;2.63;2.05;;;;;;;;;;10289659;28;20076;-62
2023/08/05 12:14:04;;;;;;;4.40;2.03;;;;;;;;;;10291510;28;20072;-62
2023/08/05 12:19:04;;;;;;;2.67;1.90;;;;;;;;;;10290005;28;20078;-61
2023/08/05 12:24:02;;;;;;;3.20;1.98;;;;;;;;;;10304654;28;20490;-62
2023/08/05 12:29:00;;;;;;;3.92;1.77;;;;;;;;;;10291323;28;20085;-63
2023/08/05 12:33:58;;;;;;;3.67;1.80;;;;;;;;;;10290962;28;20080;-63
2023/08/05 12:38:58;;;;;;;6.35;1.92;;;;;;;;;;10296182;28;20072;-61
2023/08/05 12:43:56;;;;;;;3.97;1.73;;;;;;;;;;10293028;28;20463;-61
2023/08/05 12:48:54;;;;;;;3.15;2.13;;;;;;;;;;10293795;28;20483;-61
2023/08/05 12:53:52;;;;;;;4.07;2.15;;;;;;;;;;10288869;28;20075;-63
2023/08/05 12:58:52;;;;;;;4.55;2.97;;;;;;;;;;10294111;28;20481;-62
2023/08/05 13:03:51;;;;;;;2.50;2.20;;;;;;;;;;10295590;28;20076;-62
2023/08/05 13:08:49;;;;;;;6.18;2.92;;;;;;;;;;10289927;28;20061;-62
2023/08/05 13:13:47;;;;;;;3.55;1.80;;;;;;;;;;10288830;28;20068;-62
2023/08/05 13:18:47;;;;;;;6.93;2.03;;;;;;;;;;10280578;28;20064;-62
2023/08/05 13:23:45;;;;;;;4.75;2.47;;;;;;;;;;10274954;28;20068;-62
2023/08/05 13:28:43;;;;;;;5.13;2.30;;;;;;;;;;10287930;28;20060;-62
2023/08/05 13:33:42;;;;;;;4.53;2.60;;;;;;;;;;10294228;28;20083;-62
2023/08/05 13:38:41;;;;;;;3.55;2.50;;;;;;;;;;10291167;28;20084;-63
2023/08/05 13:43:39;;;;;;;6.30;2.40;;;;;;;;;;10288807;28;20076;-62
2023/08/05 13:48:38;;;;;;;6.20;2.70;;;;;;;;;;10289363;28;20087;-63
2023/08/05 13:53:37;;;;;;;10.68;2.72;;;;;;;;;;10290081;28;20091;-62
2023/08/05 13:58:36;;;;;;;7.20;2.70;;;;;;;;;;10292204;28;20458;-62
2023/08/05 14:03:34;;;;;;;6.53;2.63;;;;;;;;;;10287838;28;20080;-63
2023/08/05 14:08:33;;;;;;;3.13;2.63;;;;;;;;;;10289360;28;20068;-62
2023/08/05 14:13:31;;;;;;;4.75;2.42;;;;;;;;;;10290577;28;20485;-62
2023/08/05 14:18:31;;;;;;;5.95;3.20;;;;;;;;;;10290781;28;20085;-61
2023/08/05 14:23:29;;;;;;;5.63;2.60;;;;;;;;;;10284386;28;20483;-62
2023/08/05 14:28:27;;;;;;;4.20;2.60;;;;;;;;;;10288736;28;20095;-62
2023/08/05 14:33:25;;;;;;;3.65;3.10;;;;;;;;;;10279728;28;20536;-62
2023/08/05 14:38:25;;;;;;;8.45;3.08;;;;;;;;;;10279602;28;20065;-63
2023/08/05 14:43:23;;;;;;;5.22;3.35;;;;;;;;;;10276629;28;20080;-64
2023/08/05 14:48:22;;;;;;;8.20;3.58;;;;;;;;;;10269134;28;20061;-62
2023/08/05 14:53:20;;;;;;;3.72;3.20;;;;;;;;;;10263614;28;20084;-62
2023/08/05 14:58:19;;;;;;;4.50;3.17;;;;;;;;;;10270503;28;20076;-62
2023/08/05 15:03:17;;;;;;;6.05;3.17;;;;;;;;;;10272280;28;20616;-62
2023/08/05 15:08:16;;;;;;;5.05;3.67;;;;;;;;;;10271920;28;20506;-63
2023/08/05 15:13:14;;;;;;;6.15;3.20;;;;;;;;;;10272865;28;20071;-62
2023/08/05 15:18:14;;;;;;;5.72;3.75;;;;;;;;;;10272417;28;20076;-63
2023/08/05 15:23:12;;;;;;;5.68;3.20;;;;;;;;;;10273143;28;20079;-62
2023/08/05 15:28:27;;;;;;;7.65;3.72;;;;;;;;;;10274713;28;20087;-63
2023/08/05 15:33:26;;;;;;;5.13;2.85;;;;;;;;;;10286954;28;20080;-61
2023/08/05 15:38:25;;;;;;;9.63;3.00;;;;;;;;;;10297058;28;20072;-62
2023/08/05 15:43:23;;;;;;;7.18;2.72;;;;;;;;;;10302606;28;20064;-63
2023/08/05 15:48:21;;;;;;;4.97;3.70;;;;;;;;;;10303652;28;20065;-62
2023/08/05 15:53:21;;;;;;;8.77;2.70;;;;;;;;;;10302148;28;20087;-63
2023/08/05 15:58:19;;;;;;;8.75;5.10;;;;;;;;;;10293320;28;20501;-62
2023/08/05 16:03:17;;;;;;;6.90;3.28;;;;;;;;;;10295509;28;20076;-62
2023/08/05 16:08:16;;;;;;;4.65;2.83;;;;;;;;;;10303572;28;20084;-62
2023/08/05 16:13:15;;;;;;;5.95;2.33;;;;;;;;;;10298153;28;20072;-62
2023/08/05 16:18:14;;;;;;;7.03;2.75;;;;;;;;;;10291799;28;20376;-63
2023/08/05 16:23:12;;;;;;;7.97;3.25;;;;;;;;;;10298152;28;20069;-61
2023/08/05 16:28:11;;;;;;;4.65;2.35;;;;;;;;;;10300672;28;20079;-63
2023/08/05 16:33:11;;;;;;;6.60;3.58;;;;;;;;;;10299799;28;20072;-62
2023/08/05 16:38:09;;;;;;;7.10;2.72;;;;;;;;;;10300083;28;20075;-62
2023/08/05 16:43:08;;;;;;;3.63;3.25;;;;;;;;;;10297039;28;20098;-62
2023/08/05 16:48:06;;;;;;;5.85;3.20;;;;;;;;;;10295960;28;20076;-62
2023/08/05 16:53:06;;;;;;;4.57;3.72;;;;;;;;;;10293995;28;20479;-62
2023/08/05 16:58:04;;;;;;;7.10;3.15;;;;;;;;;;10293195;28;20498;-62
2023/08/05 17:03:02;;;;;;;5.45;4.07;;;;;;;;;;10288216;28;20069;-63
2023/08/05 17:08:00;;;;;;;7.43;4.03;;;;;;;;;;10288053;28;20073;-62
2023/08/05 17:13:00;;;;;;;5.40;4.50;;;;;;;;;;10290351;28;20497;-63
2023/08/05 17:17:58;;;;;;;4.75;4.10;;;;;;;;;;10292844;28;20076;-62
2023/08/05 17:22:56;;;;;;;5.97;3.13;;;;;;;;;;10293858;28;20076;-62
2023/08/05 17:27:54;;;;;;;6.18;3.47;;;;;;;;;;10276759;28;20073;-61
2023/08/05 17:32:54;;;;;;;6.65;3.92;;;;;;;;;;10286747;28;20501;-62
2023/08/05 17:37:53;;;;;;;6.30;5.20;;;;;;;;;;10286434;28;20076;-62
2023/08/05 17:42:51;;;;;;;7.03;3.80;;;;;;;;;;10294071;28;20064;-61
2023/08/05 17:47:49;;;;;;;6.57;3.88;;;;;;;;;;10293627;28;20466;-62
2023/08/05 17:52:50;;;;;;;7.97;4.28;;;;;;;;;;10291075;28;20036;-62
2023/08/05 17:57:49;;;;;;;6.78;4.25;;;;;;;;;;10290209;28;20072;-62
2023/08/05 18:02:47;;;;;;;6.55;4.82;;;;;;;;;;10291258;28;20068;-61
2023/08/05 18:07:45;;;;;;;8.45;5.40;;;;;;;;;;10290633;28;20075;-61
2023/08/05 18:12:45;;;;;;;10.20;4.28;;;;;;;;;;10292687;28;20087;-62
2023/08/05 18:17:43;;;;;;;9.50;3.28;;;;;;;;;;10284699;28;21922;-63
2023/08/05 18:22:42;;;;;;;11.27;5.80;;;;;;;;;;10305611;28;20534;-63
2023/08/05 18:27:40;;;;;;;9.75;4.53;;;;;;;;;;10290688;28;20067;-62
2023/08/05 18:32:39;;;;;;;7.88;4.13;;;;;;;;;;10290487;28;20071;-63
2023/08/05 18:37:38;;;;;;;15.50;5.50;;;;;;;;;;10290029;28;20065;-62
2023/08/05 18:42:36;;;;;;;5.75;3.33;;;;;;;;;;10289785;28;20597;-62
2023/08/05 18:47:34;;;;;;;4.72;3.67;;;;;;;;;;10287768;28;20068;-62
2023/08/05 18:52:34;;;;;;;5.72;3.80;;;;;;;;;;10288068;28;20065;-63
2023/08/05 18:57:32;;;;;;;8.38;3.38;;;;;;;;;;10290668;28;20064;-62
2023/08/05 19:02:33;;;;;;;7.68;4.50;;;;;;;;;;10288356;28;20078;-63
2023/08/05 19:07:31;;;;;;;7.15;3.75;;;;;;;;;;10290216;28;20151;-62
2023/08/05 19:12:31;;;;;;;5.72;3.50;;;;;;;;;;10289284;28;20290;-62
2023/08/05 19:17:30;;;;;;;5.35;4.15;;;;;;;;;;10281088;28;20064;-62
2023/08/05 19:22:28;;;;;;;6.40;4.20;;;;;;;;;;10289667;28;20077;-62
2023/08/05 19:27:26;;;;;;;4.10;3.65;;;;;;;;;;10279955;28;20079;-62
2023/08/05 19:32:39;;;;;;;10.85;3.92;;;;;;;;;;10283747;28;20076;-63
2023/08/05 19:37:37;;;;;;;6.78;4.40;;;;;;;;;;10283232;28;20077;-62
2023/08/05 19:42:35;;;;;;;7.25;5.07;;;;;;;;;;10287218;28;20076;-64
2023/08/05 19:47:39;;;;;;;6.90;4.18;;;;;;;;;;10287734;28;20080;-63
2023/08/05 19:52:39;;;;;;;5.32;4.88;;;;;;;;;;10282152;28;20064;-62
2023/08/05 19:57:38;;;;;;;5.45;4.38;;;;;;;;;;10285985;28;20069;-62
2023/08/05 20:02:36;;;;;;;12.40;4.60;;;;;;;;;;10289449;28;20092;-62
2023/08/05 20:07:35;;;;;;;9.98;4.82;;;;;;;;;;10281790;28;20072;-62
2023/08/05 20:12:34;;;;;;;6.53;5.82;;;;;;;;;;10280075;28;20471;-62
2023/08/05 20:17:33;;;;;;;9.70;5.47;;;;;;;;;;10286606;28;20068;-66
2023/08/05 20:22:31;;;;;;;7.55;4.13;;;;;;;;;;10292728;28;20076;-62
2023/08/05 20:27:29;;;;;;;9.07;4.57;;;;;;;;;;10294765;28;20068;-62
2023/08/05 20:32:29;;;;;;;5.13;4.63;;;;;;;;;;10287755;28;20075;-62
2023/08/05 20:37:27;;;;;;;6.20;4.80;;;;;;;;;;10295863;28;20072;-62
2023/08/05 20:42:25;;;;;;;5.25;4.75;;;;;;;;;;10292920;28;20103;-62
2023/08/05 20:47:24;;;;;;;5.55;4.72;;;;;;;;;;10293448;28;20071;-62
2023/08/05 20:52:24;;;;;;;5.80;4.72;;;;;;;;;;10292836;28;20064;-63
2023/08/05 20:57:23;;;;;;;8.35;5.10;;;;;;;;;;10296139;28;20074;-62
2023/08/05 21:02:21;;;;;;;9.18;5.50;;;;;;;;;;10296517;28;20080;-62
2023/08/05 21:07:19;;;;;;;8.35;5.55;;;;;;;;;;10295380;28;20330;-61
2023/08/05 21:12:19;;;;;;;7.28;4.82;;;;;;;;;;10294606;28;20083;-62
2023/08/05 21:17:17;;;;;;;6.85;4.95;;;;;;;;;;10295574;28;20065;-62
2023/08/05 21:22:16;;;;;;;8.90;4.40;;;;;;;;;;10295020;28;20080;-62
2023/08/05 21:27:14;;;;;;;10.27;6.72;;;;;;;;;;10296183;28;20064;-62
2023/08/05 21:32:14;;;;;;;11.85;4.90;;;;;;;;;;10294284;28;20072;-62
2023/08/05 21:37:13;;;;;;;7.07;4.70;;;;;;;;;;10293497;28;20072;-62
2023/08/05 21:42:11;;;;;;;7.90;5.72;;;;;;;;;;10293435;28;20068;-61
2023/08/05 21:47:09;;;;;;;5.82;4.90;;;;;;;;;;10294587;28;20072;-62
2023/08/05 21:52:09;;;;;;;10.15;5.72;;;;;;;;;;10292573;28;20072;-62
2023/08/05 21:57:07;;;;;;;6.00;5.38;;;;;;;;;;10289201;28;20072;-61
2023/08/05 22:02:06;;;;;;;8.70;4.60;;;;;;;;;;10293586;28;20072;-61
2023/08/05 22:07:05;;;;;;;6.63;5.32;;;;;;;;;;10293738;28;20079;-61
2023/08/05 22:12:07;;;;;;;5.72;4.82;;;;;;;;;;10291692;28;20537;-62
2023/08/05 22:17:05;;;;;;;8.15;5.53;;;;;;;;;;10292765;28;20594;-62
2023/08/05 22:22:04;;;;;;;6.60;4.88;;;;;;;;;;10286433;28;20071;-62
2023/08/05 22:27:02;;;;;;;7.38;5.45;;;;;;;;;;10290860;28;20457;-62
2023/08/05 22:32:03;;;;;;;7.68;5.45;;;;;;;;;;10293410;28;20076;-62
2023/08/05 22:37:02;;;;;;;6.18;5.13;;;;;;;;;;10292929;28;20084;-62
2023/08/05 22:42:00;;;;;;;5.97;4.82;;;;;;;;;;10290277;28;20083;-62
2023/08/05 22:46:58;;;;;;;7.13;5.00;;;;;;;;;;10291865;28;20479;-62
2023/08/05 22:51:57;;;;;;;6.13;5.53;;;;;;;;;;10291956;28;20497;-61
2023/08/05 22:56:56;;;;;;;6.35;5.40;;;;;;;;;;10291060;28;20540;-61
2023/08/05 23:01:54;;;;;;;10.98;5.60;;;;;;;;;;10291211;28;20079;-61
2023/08/05 23:06:53;;;;;;;7.35;5.57;;;;;;;;;;10290270;28;20081;-62
2023/08/05 23:11:52;;;;;;;6.35;5.75;;;;;;;;;;10287901;28;20470;-61
2023/08/05 23:16:51;;;;;;;6.85;6.03;;;;;;;;;;10290693;28;20067;-61
2023/08/05 23:21:49;;;;;;;9.35;6.05;;;;;;;;;;10290760;28;20083;-62
2023/08/05 23:26:47;;;;;;;9.38;5.85;;;;;;;;;;10289818;28;20060;-62
2023/08/05 23:31:47;;;;;;;8.63;5.88;;;;;;;;;;10289635;28;20345;-61
2023/08/05 23:36:45;;;;;;;8.48;6.72;;;;;;;;;;10288021;28;20558;-61
2023/08/05 23:41:43;;;;;;;5.80;5.15;;;;;;;;;;10290312;28;20075;-62
2023/08/05 23:46:42;;;;;;;8.05;6.15;;;;;;;;;;10290636;28;20526;-61
2023/08/05 23:51:42;;;;;;;14.73;6.07;;;;;;;;;;10292830;28;20466;-61
2023/08/05 23:56:40;;;;;;;6.03;5.45;;;;;;;;;;10300148;28;20072;-61
